Terminal Aerodrome Forecast
Issued by NWS Atlanta, GA

Home | Current Version | Previous Version | Text Only | Print | Product List | Glossary On
Versions: 1 2 3 4 5 6 7 8 9 10 11 12 13 14 15 16 17 18 19 20 21
934
FTUS42 KFFC 161416 AAA
TAFCSG
TAF AMD
KCSG 161416Z 1614/1712 26004KT P6SM BKN012
     FM161600 30003KT P6SM SCT025 BKN250
     FM162000 29007KT P6SM VCSH SCT040 BKN250
     FM170200 VRB03KT P6SM FEW050 BKN250=

USA.gov is the U.S. government's official web portal to all federal, state and local government web resources and services.